Active alerts

Plymouth County
  Details for Plymouth County High Wind Warning  +2 additional alerts

My webcam more information My webcam


Thunder radar more information blitzortung!


Rain radar more information rain snow radar


Visit our other weather sites:

Template documentation
and downloads

And another site


You find our weather info also at:

Weather Underground

AWEKAS

Citizen Weather Observer Program (CWOP)

HAMweather, WeatherForYou, PWS Weather


 PLYMOUTH COUNTY  -  High Wind Warning High Wind Warning     Wind Advisory Wind Advisory     Wind Advisory Wind Advisory      

Nearby METAR Reports

   
KTAN - Taunton, Massachusetts, USA
Distance from station: W 5 mi
Updated: Nov 18 2017 7:52 pm
Light Rain, Overcast  
Light Rain, Overcast  
   Wind: South 9.2 mph
Wind: South 9.2 mph
Temperature: 53.6°F
Dew Point: 48.2°F
Humidity: 82%
Barometer: 29.63 inHg
Clouds: Overcast
Visibility: 10 mi
Cloud details: Few Clouds 7000 ft,
Overcast 9000 ft
KTAN 190052Z AUTO 19008KT 10SM -RA FEW070 OVC090 12/09 A2963 RMK AO2 SLP035 P0001 T01220094 $
KPYM - Plymouth, Massachusetts, USA
Distance from station: ENE 10 mi
Updated: Nov 18 2017 7:52 pm
Light Rain, Overcast  
Light Rain, Overcast  
   Wind: South 6.9 mph
Wind: South 6.9 mph
Temperature: 55.4°F
Dew Point: 48.2°F
Humidity: 77%
Barometer: 29.64 inHg
Clouds: Overcast
Visibility: 10 mi
Cloud details: Mostly Cloudy 6000 ft,
Overcast 9500 ft
KPYM 190052Z AUTO 19006KT 10SM -RA BKN060 OVC095 13/09 A2964 RMK AO2 RAB15 SLP038 P0000 T01280089
KEWB - New Bedford, Massachusetts, USA
Distance from station: S 14 mi
Updated: Nov 18 2017 7:53 pm
Light Rain, Overcast  
Light Rain, Overcast  
   Wind: SSW 10.4 mph
Wind: SSW 10.4 mph
Temperature: 55.4°F
Dew Point: 48.2°F
Humidity: 77%
Barometer: 29.63 inHg
Clouds: Overcast
Visibility: 10 mi
Cloud details: Few Clouds 7000 ft,
Overcast 9000 ft
KEWB 190053Z 21009KT 10SM -RA FEW070 OVC090 13/09 A2963 RMK AO2 RAB2357 SLP035 P0000 T01330094
KFMH - Falmouth/Otis Ab, Massachusetts, USA
Distance from station: SE 27 mi
Updated: Nov 18 2017 7:55 pm
Overcast  
Overcast  
   Wind: South 12.7 mph
Wind: South 12.7 mph
Temperature: 55.4°F
Dew Point: 50°F
Humidity: 82%
Barometer: 29.66 inHg
Clouds: Overcast
Visibility: 10 mi
Cloud details: Mostly Cloudy 7000 ft,
Overcast 8000 ft
KFMH 190055Z AUTO 19011KT 10SM BKN070 OVC080 13/10 A2966 RMK AO2
KBOS - Boston, Massachusetts, USA
Distance from station: N 33 mi
Updated: Nov 18 2017 7:54 pm
Light Rain, Overcast  
Light Rain, Overcast  
   Wind: SE 5.8 mph
Wind: SE 5.8 mph
Temperature: 46.4°F
Wind Chill: 44.6°F
Dew Point: 44.6°F
Humidity: 93%
Barometer: 29.63 inHg
Clouds: Overcast
Visibility: 8 mi
Cloud details: Few Clouds 4400 ft,
Overcast 5500 ft
KBOS 190054Z 13005KT 8SM -RA FEW044 OVC055 08/07 A2963 RMK AO2 RAB17 SLP033 P0001 T00780067
KHYA - Hyannis, Massachusetts, USA
Distance from station: ESE 37 mi
Updated: Nov 18 2017 7:56 pm
Overcast  
Overcast  
   Wind: South 9.2 mph
Wind: South 9.2 mph
Temperature: 53.6°F
Dew Point: 50°F
Humidity: 88%
Barometer: 29.65 inHg
Clouds: Overcast
Visibility: 10 mi
Cloud details: Mostly Cloudy 10000 ft,
Overcast 12000 ft
KHYA 190056Z 19008KT 10SM BKN100 OVC120 12/10 A2965 RMK AO2 SLP040 T01220100
KMVY - Marthas Vineyard, Massachusetts, USA
Distance from station: SSE 37 mi
Updated: Nov 18 2017 7:53 pm
Overcast  
Overcast  
   Wind: SSW 16.1 mph
Wind: SSW 16.1 mph
Temperature: 57.2°F
Dew Point: 51.8°F
Humidity: 82%
Barometer: 29.66 inHg
Clouds: Overcast
Visibility: 10 mi
Cloud details: Overcast 10000 ft
KMVY 190053Z AUTO 20014KT 10SM OVC100 14/11 A2966 RMK AO2 SLP042 T01390106
KCQX - Chatham, Massachusetts, USA
Distance from station: ESE 49 mi
Updated: Nov 18 2017 7:52 pm
Overcast  
Overcast  
   Wind: South 8.1 mph<br />Gust to 8.1 mph
Wind: South 8.1 mph
Gust to 8.1 mph
Temperature: 53.6°F
Dew Point: 48.2°F
Humidity: 82%
Barometer: 29.68 inHg
Clouds: Overcast
Visibility: 10 mi
Cloud details: Overcast 11000 ft
KCQX 190052Z AUTO 17007G15KT 10SM OVC110 12/09 A2968 RMK AO2 SLP053 T01170094
 

Script developed by  Saratoga-weather.org Adapted for the template by  Weerstation Leuven

Equipment we use:

Weather-station
Davis Vantage Vue

Weather-program
Meteobridge

Weather-server
TP-LINK TL-MR3020

Provider
Web Hosting By

Davis Vantage Vue

Meteobridge

TP-LINK TL-MR3020

Web Hosting By